• Join FlightAware (Why Join?)
  • Login
  • US Flag 
Rudolph Flight #1: Arrived! 
03:21AM EST


 

Airport Tracker/Info


-or-


 

Live Flight TrackerFlight Track Log ✈ UAL4988 ✈ 14-Aug-2014 ✈ KORD - KATL

Flight Track Log - Related Links

Times and Time Zones

All times are in EDT time to prevent confusion due to time zone crossing. See the UAL4988 flight status page for this flight to view local times or setup timezone preferences in your user account.

Time Position Orientation Groundspeed Altitude Reporting Facility
EDT Latitude Longitude Course Direction KTS MPH feet Rate Location/Type
04:45PM 41.9667 -87.8667 180° South 162 186 2,200  Level Chicago TRACON
04:46PM 41.9000 -87.8667 180° South 231 266 3,900 1,980 Climbing Chicago TRACON
04:47PM 41.7981 -87.8569 176° South 287 330 7,100 2,280 Climbing Chicago Center
04:49PM 41.7133 -87.8614 182° South 311 358 9,600 2,460 Climbing Chicago Center
04:50PM 41.6183 -87.8672 183° South 331 381 12,300 2,100 Climbing Chicago Center
04:51PM 41.5231 -87.8692 181° South 358 412 14,000 1,560 Climbing Chicago Center
04:52PM 41.4097 -87.8794 184° South 388 447 15,600 1,560 Climbing Chicago Center
04:53PM 41.2983 -87.8872 183° South 403 464 17,300 1,320 Climbing Chicago Center
04:54PM 41.1853 -87.8919 182° South 422 486 18,400 1,140 Climbing Chicago Center
04:55PM 41.0661 -87.8869 178° South 428 493 19,700 1,200 Climbing Chicago Center
04:56PM 40.9467 -87.8519 168° South 443 510 21,000 2,280 Climbing Chicago Center
04:57PM 40.8122 -87.8444 178° South 403 464 24,500 2,160 Climbing Chicago Center
04:58PM 40.7044 -87.9019 202° Southwest 424 488 25,500 780 Climbing Chicago Center
04:59PM 40.5811 -87.9100 183° South 468 539 26,200 600 Climbing Chicago Center
05:00PM 40.4506 -87.8714 167° South 487 560 26,800 600 Climbing Chicago Center
05:01PM 40.3156 -87.8319 167° South 501 577 27,500 720 Climbing Chicago Center
05:02PM 40.1717 -87.7900 167° South 508 585 28,400 840 Climbing Chicago Center
05:03PM 40.0328 -87.7497 167° South 515 593 29,300 900 Climbing Chicago Center
05:04PM 39.8644 -87.7014 168° South 522 601 30,300 960 Climbing Chicago Center
05:05PM 39.7806 -87.6769 167° South 518 596 31,000 900 Climbing Indianapolis Center
05:06PM 39.6411 -87.6372 168° South 520 598 31,900 900 Climbing Indianapolis Center
05:07PM 39.4719 -87.5892 168° South 520 598 32,900 900 Climbing Indianapolis Center
05:08PM 39.3319 -87.5492 168° South 518 596 33,800 960 Climbing Indianapolis Center
05:09PM 39.1942 -87.5103 168° South 508 585 35,000 540 Climbing Indianapolis Center
05:10PM 39.0503 -87.4697 168° South 500 575 35,000  Level Indianapolis Center
05:11PM 38.9128 -87.4314 168° South 503 579 35,000  Level Indianapolis Center
05:12PM 38.7756 -87.3931 168° South 506 582 35,000  Level Indianapolis Center
05:13PM 38.6386 -87.3550 168° South 506 582 35,000  Level Indianapolis Center
05:14PM 38.4753 -87.3097 168° South 499 574 35,000  Level Indianapolis Center
05:15PM 38.3408 -87.2728 168° South 497 572 35,000  Level Indianapolis Center
05:16PM 38.2081 -87.2361 168° South 498 573 35,000  Level Indianapolis Center
05:17PM 38.0736 -87.1994 168° South 501 577 35,000  Level Indianapolis Center
05:18PM 37.9119 -87.1553 168° South 500 575 35,000  Level Indianapolis Center
05:19PM 37.7728 -87.1175 168° South 496 571 35,000  Level Indianapolis Center
05:20PM 37.6417 -87.0822 168° South 494 568 35,000  Level Indianapolis Center
05:21PM 37.5136 -87.0478 168° South 494 568 35,000  Level Indianapolis Center
05:22PM 37.3556 -87.0053 168° South 491 565 35,000  Level Indianapolis Center
05:23PM 37.2878 -86.9872 168° South 494 568 35,000  Level Memphis Center
05:24PM 37.1528 -86.9511 168° South 490 564 35,000  Level Memphis Center
05:25PM 37.0181 -86.9156 168° South 491 565 35,000  Level Memphis Center
05:26PM 36.8836 -86.8800 168° South 492 566 35,000  Level Memphis Center
05:27PM 36.7492 -86.8444 168° South 488 562 35,000  Level Memphis Center
05:28PM 36.6147 -86.8092 168° South 487 560 35,000  Level Memphis Center
05:29PM 36.4800 -86.7739 168° South 484 557 35,000  Level Memphis Center
05:30PM 36.3428 -86.7381 168° South 484 557 35,000  Level Memphis Center
05:31PM 36.2058 -86.7025 168° South 486 559 35,000  Level Memphis Center
05:32PM 36.0592 -86.6211 156° South 495 570 35,000 -60 Level Memphis Center
05:33PM 35.9425 -86.5264 147° Southeast 487 560 34,900 -720 Descending Memphis Center
05:34PM 35.8256 -86.4317 147° Southeast 501 577 33,600 -960 Descending Memphis Center
05:35PM 35.7081 -86.3369 147° Southeast 505 581 33,000 -300 Descending Memphis Center
05:36PM 35.5911 -86.2428 147° Southeast 498 573 33,000  Level Memphis Center
05:37PM 35.4717 -86.1469 147° Southeast 501 577 33,000 -780 Level Memphis Center
05:38PM 35.3564 -86.0550 147° Southeast 497 572 31,500 -1,620 Descending Memphis Center
05:39PM 35.2406 -85.9631 147° Southeast 493 567 29,700 -1,860 Descending Memphis Center
05:40PM 35.1033 -85.8536 147° Southeast 485 558 27,700 -1,800 Descending Memphis Center
05:42PM 34.9914 -85.7656 147° Southeast 476 548 26,000 -1,680 Descending Memphis Center
05:43PM 34.8831 -85.6800 147° Southeast 458 527 24,300 -1,080 Descending Memphis Center
05:43PM 34.7903 -85.6094 148° Southeast 473 544 24,000 -180 Descending Atlanta Center
05:44PM 34.6847 -85.5242 146° Southeast 468 539 24,000  Level Atlanta Center
05:45PM 34.5772 -85.4414 148° Southeast 468 539 24,000 -900 Level Atlanta Center
05:46PM 34.4697 -85.3592 148° Southeast 462 532 22,300 -2,220 Descending Atlanta Center
05:48PM 34.2667 -85.2000 147° Southeast 414 476 17,700 -2,400 Descending Atlanta TRACON
05:49PM 34.1833 -85.1333 146° Southeast 387 445 15,700 -2,280 Descending Atlanta TRACON
05:50PM 34.1000 -85.0500 140° Southeast 351 404 13,200 -1,500 Descending Atlanta TRACON
05:51PM 34.0500 -84.9667 126° Southeast 326 375 12,600 -840 Descending Atlanta TRACON
05:52PM 33.9833 -84.9000 140° Southeast 313 360 11,600 -1,080 Descending Atlanta TRACON
05:53PM 33.9000 -84.8833 171° South 295 339 10,500 -900 Descending Atlanta TRACON
05:54PM 33.8167 -84.8833 180° South 274 315 9,800 -840 Descending Atlanta TRACON
05:55PM 33.7500 -84.8833 180° South 251 289 8,900 -960 Descending Atlanta TRACON
05:56PM 33.6833 -84.8500 157° South 245 282 7,900 -1,020 Descending Atlanta TRACON
05:57PM 33.6500 -84.8000 129° Southeast 249 287 7,000 -1,260 Descending Atlanta TRACON
05:58PM 33.6333 -84.7167 103° East 246 283 5,400 -1,260 Descending Atlanta TRACON
05:59PM 33.6333 -84.6500 90° East 199 229 4,500 -1,140 Descending Atlanta TRACON
06:00PM 33.6333 -84.5833 90° East 195 224 3,300 -1,200 Descending Atlanta TRACON
06:01PM 33.6333 -84.5167 90° East 166 191 2,200 -900 Descending Atlanta TRACON
06:02PM 33.6333 -84.4833 90° East 141 162 1,500 -720 Descending Atlanta TRACON
06:04PM 33.6367 -84.4279 95° East  Level Estimated